createdAt,value
2022-09-03T00:00:19.585Z,5.75
2022-09-03T00:03:18.478Z,5.05
2022-09-03T00:05:48.558Z,6.25
2022-09-03T00:08:33.078Z,6.47
2022-09-03T00:11:08.343Z,5.93
2022-09-03T00:13:45.080Z,9.20
2022-09-03T00:16:16.097Z,4.82
2022-09-03T00:18:46.702Z,7.05
2022-09-03T00:21:24.833Z,6.90
2022-09-03T00:23:53.240Z,9.32
2022-09-03T00:26:27.794Z,8.98
2022-09-03T00:29:00.042Z,11.25
2022-09-03T00:31:37.559Z,6.88
2022-09-03T00:34:15.538Z,4.68
2022-09-03T00:36:44.948Z,11.75
2022-09-03T00:39:18.009Z,8.32
2022-09-03T00:42:00.159Z,12.18
2022-09-03T00:44:35.202Z,6.65
2022-09-03T00:47:12.543Z,6.25
2022-09-03T00:50:19.264Z,11.18
2022-09-03T00:53:04.747Z,10.90
2022-09-03T00:55:39.832Z,9.10
2022-09-03T00:58:39.641Z,8.57
2022-09-03T01:01:26.915Z,9.68
2022-09-03T01:04:07.658Z,7.25
2022-09-03T01:06:56.255Z,7.53
2022-09-03T01:09:29.773Z,8.10
2022-09-03T01:11:59.915Z,8.82
2022-09-03T01:14:47.919Z,13.18
2022-09-03T01:17:37.065Z,8.18
2022-09-03T01:20:14.144Z,8.95
2022-09-03T01:22:50.286Z,10.43
2022-09-03T01:25:37.634Z,7.25
2022-09-03T01:28:24.018Z,9.38
2022-09-03T01:31:03.154Z,7.35
2022-09-03T01:33:48.133Z,10.40
2022-09-03T01:36:39.842Z,10.02
2022-09-03T01:39:11.633Z,9.30
2022-09-03T01:42:20.549Z,9.95
2022-09-03T01:45:01.887Z,6.90
2022-09-03T01:47:50.034Z,8.60
2022-09-03T01:50:27.170Z,6.22
2022-09-03T01:53:19.518Z,8.38
2022-09-03T01:56:07.409Z,7.45
2022-09-03T01:58:43.172Z,7.60
2022-09-03T02:01:18.128Z,7.45
2022-09-03T02:03:45.877Z,7.25
2022-09-03T02:06:12.901Z,8.60
2022-09-03T02:08:40.265Z,8.32
2022-09-03T02:11:09.752Z,7.85
2022-09-03T02:13:44.486Z,7.45
2022-09-03T02:16:17.529Z,7.53
2022-09-03T02:18:48.905Z,9.68
2022-09-03T02:21:22.633Z,7.05
2022-09-03T02:23:50.299Z,9.55
2022-09-03T02:26:23.643Z,7.35
2022-09-03T02:28:52.113Z,7.75
2022-09-03T02:31:19.074Z,8.02
2022-09-03T02:33:49.145Z,5.80
2022-09-03T02:36:21.289Z,6.72
2022-09-03T02:38:48.276Z,8.13
2022-09-03T02:41:15.517Z,6.72
2022-09-03T02:43:47.262Z,8.57
2022-09-03T02:46:21.308Z,6.78
2022-09-03T02:48:49.138Z,8.48
2022-09-03T02:51:16.429Z,7.30
2022-09-03T02:53:43.537Z,7.38
2022-09-03T02:56:11.518Z,8.70
2022-09-03T02:58:38.733Z,8.32
2022-09-03T03:01:05.946Z,8.40
2022-09-03T03:03:33.541Z,6.85
2022-09-03T03:06:05.918Z,7.07
2022-09-03T03:08:34.775Z,8.10
2022-09-03T03:11:02.188Z,7.85
2022-09-03T03:13:30.826Z,10.43
2022-09-03T03:16:02.764Z,8.88
2022-09-03T03:18:30.110Z,8.75
2022-09-03T03:20:57.062Z,7.45
2022-09-03T03:23:23.965Z,7.00
2022-09-03T03:25:51.111Z,6.88
2022-09-03T03:28:19.027Z,9.43
2022-09-03T03:30:48.625Z,5.70
2022-09-03T03:33:15.950Z,7.40
2022-09-03T03:35:42.888Z,6.80
2022-09-03T03:38:10.211Z,6.13
2022-09-03T03:40:38.878Z,9.93
2022-09-03T03:43:05.806Z,6.65
2022-09-03T03:45:33.484Z,7.22
2022-09-03T03:48:00.685Z,6.22
2022-09-03T03:50:28.119Z,10.55
2022-09-03T03:52:55.052Z,6.72
2022-09-03T03:55:22.921Z,10.82
2022-09-03T03:57:53.991Z,5.38
2022-09-03T04:00:20.937Z,5.70
2022-09-03T04:02:48.080Z,7.60
2022-09-03T04:05:15.726Z,7.75
2022-09-03T04:07:46.070Z,6.75
2022-09-03T04:10:13.569Z,5.75
2022-09-03T04:12:40.396Z,11.05
2022-09-03T04:15:07.754Z,8.27
2022-09-03T04:17:34.955Z,6.05
2022-09-03T04:20:02.190Z,11.30
2022-09-03T04:22:29.792Z,11.15
2022-09-03T04:24:56.851Z,6.45
2022-09-03T04:27:23.673Z,8.88
2022-09-03T04:29:50.524Z,8.10
2022-09-03T04:32:43.892Z,7.38
2022-09-03T04:35:11.053Z,5.00
2022-09-03T04:37:38.085Z,8.05
2022-09-03T04:40:05.526Z,7.25
2022-09-03T04:42:32.429Z,6.18
2022-09-03T04:44:59.711Z,8.52
2022-09-03T04:47:28.192Z,9.55
2022-09-03T04:49:55.299Z,10.98
2022-09-03T04:52:22.574Z,7.88
2022-09-03T04:54:49.472Z,6.03
2022-09-03T04:57:16.747Z,6.93
2022-09-03T04:59:44.207Z,6.55
2022-09-03T05:02:11.192Z,9.65
2022-09-03T05:04:38.115Z,7.93
2022-09-03T05:07:05.159Z,10.23
2022-09-03T05:09:32.175Z,6.60
2022-09-03T05:11:59.050Z,6.60
2022-09-03T05:14:26.101Z,9.48
2022-09-03T05:16:53.437Z,5.05
2022-09-03T05:19:20.705Z,8.45
2022-09-03T05:21:47.837Z,7.20
2022-09-03T05:24:15.511Z,8.23
2022-09-03T05:26:42.453Z,5.88
2022-09-03T05:29:09.629Z,7.38
2022-09-03T05:31:39.291Z,7.15
2022-09-03T05:34:06.887Z,5.50
2022-09-03T05:36:36.853Z,9.68
2022-09-03T05:39:05.440Z,5.85
2022-09-03T05:41:34.308Z,5.55
2022-09-03T05:44:02.282Z,6.15
2022-09-03T05:46:33.804Z,4.88
2022-09-03T05:49:02.445Z,6.45
2022-09-03T05:51:30.717Z,11.18
2022-09-03T05:53:58.217Z,5.10
2022-09-03T05:56:27.695Z,5.70
2022-09-03T05:58:58.075Z,5.07
2022-09-03T06:01:28.673Z,4.00
2022-09-03T06:04:00.674Z,5.97
2022-09-03T06:06:29.278Z,5.22
2022-09-03T06:08:58.709Z,5.15
2022-09-03T06:11:29.722Z,8.30
2022-09-03T06:14:01.861Z,5.32
2022-09-03T06:16:32.063Z,3.90
2022-09-03T06:19:00.846Z,4.20
2022-09-03T06:21:28.718Z,5.75
2022-09-03T06:23:59.725Z,4.85
2022-09-03T06:26:29.379Z,5.53
2022-09-03T06:28:57.591Z,4.68
2022-09-03T06:31:25.697Z,12.65
2022-09-03T06:33:54.693Z,7.32
2022-09-03T06:36:24.605Z,6.30
2022-09-03T06:38:53.894Z,4.30
2022-09-03T06:41:27.105Z,6.82
2022-09-03T06:43:59.304Z,4.75
2022-09-03T06:46:26.204Z,4.88
2022-09-03T06:48:53.515Z,6.82
2022-09-03T06:51:23.294Z,3.67
2022-09-03T06:53:54.802Z,5.28
2022-09-03T06:56:26.504Z,5.30
2022-09-03T06:58:55.766Z,8.48
2022-09-03T07:01:28.537Z,4.15
2022-09-03T07:04:01.037Z,12.80
2022-09-03T07:06:31.577Z,3.35
2022-09-03T07:08:59.815Z,4.47
2022-09-03T07:11:30.959Z,5.03
2022-09-03T07:16:34.970Z,4.25
2022-09-03T07:19:04.637Z,2.70
2022-09-03T07:21:34.127Z,3.08
2022-09-03T07:24:01.145Z,5.82
2022-09-03T07:26:31.050Z,4.00
2022-09-03T07:28:58.415Z,3.17
2022-09-03T07:31:32.110Z,5.45
2022-09-03T07:34:06.210Z,5.13
2022-09-03T07:36:43.108Z,5.85
2022-09-03T07:39:12.793Z,6.82
2022-09-03T07:41:45.818Z,6.85
2022-09-03T07:44:19.883Z,4.07
2022-09-03T07:46:48.290Z,3.67
2022-09-03T07:49:15.849Z,9.98
2022-09-03T07:51:43.067Z,3.20
2022-09-03T07:54:11.536Z,4.80
2022-09-03T07:56:40.358Z,8.00
2022-09-03T07:59:08.281Z,2.92
2022-09-03T08:01:36.107Z,5.80
2022-09-03T08:04:04.418Z,7.10
2022-09-03T08:06:33.999Z,2.30
2022-09-03T08:09:05.523Z,3.38
2022-09-03T08:11:37.301Z,3.15
2022-09-03T08:14:07.327Z,3.38
2022-09-03T08:16:40.497Z,2.28
2022-09-03T08:19:07.834Z,4.00
2022-09-03T08:21:36.323Z,3.17
2022-09-03T08:24:04.410Z,5.28
2022-09-03T08:26:36.135Z,4.05
2022-09-03T08:29:04.589Z,2.88
2022-09-03T08:31:32.742Z,4.18
2022-09-03T08:34:06.793Z,3.78
2022-09-03T08:36:39.369Z,6.95
2022-09-03T08:39:10.137Z,2.83
2022-09-03T08:41:58.682Z,2.58
2022-09-03T08:44:37.550Z,4.85
2022-09-03T08:47:13.561Z,4.65
2022-09-03T08:50:12.846Z,4.55
2022-09-03T08:52:50.047Z,5.25
2022-09-03T08:55:26.448Z,5.30
2022-09-03T08:58:08.519Z,3.28
2022-09-03T09:03:57.647Z,3.60
2022-09-03T09:06:42.828Z,2.97
2022-09-03T09:09:41.927Z,4.40
2022-09-03T09:12:25.775Z,4.30
2022-09-03T09:15:13.353Z,5.30
2022-09-03T09:17:58.686Z,2.58
2022-09-03T09:20:52.528Z,2.90
2022-09-03T09:23:35.691Z,4.32
2022-09-03T09:26:10.065Z,6.82
2022-09-03T09:28:38.961Z,2.47
2022-09-03T09:31:10.204Z,2.78
2022-09-03T09:36:09.597Z,5.50
2022-09-03T09:38:39.192Z,2.22
2022-09-03T09:41:15.516Z,1.83
2022-09-03T09:43:43.602Z,2.90
2022-09-03T09:46:21.775Z,3.08
2022-09-03T09:48:53.524Z,5.13
2022-09-03T09:51:32.344Z,2.60
2022-09-03T09:54:27.972Z,2.13
2022-09-03T09:57:03.837Z,1.60
2022-09-03T09:59:31.385Z,2.15
2022-09-03T10:02:13.655Z,3.22
2022-09-03T10:04:45.800Z,1.73
2022-09-03T10:07:30.242Z,1.70
2022-09-03T10:10:29.120Z,12.18
2022-09-03T10:13:16.160Z,4.85
2022-09-03T10:15:55.918Z,1.50
2022-09-03T10:18:53.759Z,4.60
2022-09-03T10:21:26.253Z,1.98
2022-09-03T10:24:23.627Z,1.40
2022-09-03T10:26:50.846Z,2.42
2022-09-03T10:29:22.166Z,1.65
2022-09-03T10:34:57.180Z,2.35
2022-09-03T10:37:36.348Z,3.90
2022-09-03T10:40:19.189Z,4.00
2022-09-03T10:43:10.834Z,1.60
2022-09-03T10:45:52.783Z,3.75
2022-09-03T10:48:33.826Z,3.53
2022-09-03T10:51:16.790Z,4.32
2022-09-03T10:54:11.536Z,4.20
2022-09-03T10:57:03.521Z,5.95
2022-09-03T10:59:51.404Z,5.30
2022-09-03T11:02:18.422Z,3.55
2022-09-03T11:05:08.554Z,6.45
2022-09-03T11:07:42.638Z,0.88
2022-09-03T11:10:16.045Z,3.30
2022-09-03T11:13:09.310Z,2.60
2022-09-03T11:15:56.772Z,2.63
2022-09-03T11:18:46.871Z,3.10
2022-09-03T11:21:16.866Z,3.53
2022-09-03T11:23:47.989Z,4.32
2022-09-03T11:26:21.508Z,3.15
2022-09-03T11:29:13.855Z,1.75
2022-09-03T11:31:43.662Z,3.08
2022-09-03T11:34:23.312Z,3.72
2022-09-03T11:37:08.102Z,1.60
2022-09-03T11:39:39.560Z,3.60
2022-09-03T11:42:12.536Z,4.07
2022-09-03T11:44:51.257Z,1.67
2022-09-03T11:47:24.634Z,1.42
2022-09-03T11:50:04.578Z,4.20
2022-09-03T11:52:32.639Z,3.50
2022-09-03T11:54:59.825Z,4.28
2022-09-03T11:57:30.302Z,5.93
2022-09-03T12:00:13.282Z,3.13
2022-09-03T12:02:46.630Z,3.92
2022-09-03T12:05:28.924Z,2.25
2022-09-03T12:08:16.606Z,5.13
2022-09-03T12:10:59.709Z,1.65
2022-09-03T12:14:32.339Z,4.43
2022-09-03T12:17:14.115Z,2.08
2022-09-03T12:19:51.726Z,2.00
2022-09-03T12:22:22.280Z,2.10
2022-09-03T12:24:51.066Z,4.65
2022-09-03T12:27:27.473Z,3.90
2022-09-03T12:30:02.126Z,1.77
2022-09-03T12:32:37.321Z,1.17
2022-09-03T12:38:09.294Z,1.95
2022-09-03T12:43:39.582Z,4.78
2022-09-03T12:46:15.287Z,3.67
2022-09-03T12:51:52.142Z,2.80
2022-09-03T12:54:21.438Z,1.50
2022-09-03T12:56:56.911Z,2.88
2022-09-03T12:59:27.658Z,4.03
2022-09-03T13:02:05.753Z,6.65
2022-09-03T13:04:37.035Z,3.55
2022-09-03T13:07:14.918Z,4.10
2022-09-03T13:09:42.676Z,3.58
2022-09-03T13:12:28.530Z,3.95
2022-09-03T13:14:57.149Z,1.40
2022-09-03T13:17:24.280Z,1.52
2022-09-03T13:20:16.185Z,2.22
2022-09-03T13:23:22.086Z,1.63
2022-09-03T13:26:24.162Z,1.70
2022-09-03T13:29:18.902Z,3.47
2022-09-03T13:31:49.500Z,3.20
2022-09-03T13:34:52.720Z,5.53
2022-09-03T13:37:37.671Z,3.95
2022-09-03T13:40:24.471Z,3.53
2022-09-03T13:42:56.596Z,2.28
2022-09-03T13:45:32.019Z,6.00
2022-09-03T13:48:24.903Z,2.33
2022-09-03T13:51:04.002Z,2.30
2022-09-03T13:53:42.042Z,3.55
2022-09-03T13:56:27.900Z,4.43
2022-09-03T13:59:17.335Z,1.67
2022-09-03T14:02:21.417Z,5.70
2022-09-03T14:04:57.474Z,2.17
2022-09-03T14:07:38.183Z,4.63
2022-09-03T14:10:19.960Z,4.88
2022-09-03T14:13:14.762Z,3.67
2022-09-03T14:15:59.830Z,1.83
2022-09-03T14:18:44.413Z,3.42
2022-09-03T14:21:26.107Z,1.85
2022-09-03T14:24:17.060Z,4.80
2022-09-03T14:26:54.078Z,2.07
2022-09-03T14:29:27.369Z,1.17
2022-09-03T14:32:09.805Z,2.08
2022-09-03T14:35:00.234Z,1.70
2022-09-03T14:37:42.483Z,3.60
2022-09-03T14:40:28.636Z,1.73
2022-09-03T14:43:50.073Z,3.17
2022-09-03T14:46:31.958Z,1.63
2022-09-03T14:49:14.609Z,5.28
2022-09-03T14:52:16.263Z,2.28
2022-09-03T14:55:15.573Z,5.97
2022-09-03T14:57:57.817Z,2.88
2022-09-03T15:01:13.470Z,5.38
2022-09-03T15:07:25.267Z,2.85
2022-09-03T15:10:05.372Z,2.47
2022-09-03T15:12:44.197Z,5.43
2022-09-03T15:15:21.090Z,8.35
2022-09-03T15:17:58.500Z,4.82
2022-09-03T15:20:31.412Z,4.65
2022-09-03T15:23:26.675Z,5.60
2022-09-03T15:26:19.953Z,5.85
2022-09-03T15:29:24.682Z,4.68
2022-09-03T15:32:06.245Z,6.28
2022-09-03T15:34:58.021Z,8.55
2022-09-03T15:37:32.340Z,2.10
2022-09-03T15:40:07.437Z,2.75
2022-09-03T15:42:37.163Z,4.03
2022-09-03T15:45:15.041Z,4.78
2022-09-03T15:47:51.591Z,3.13
2022-09-03T15:50:47.989Z,3.03
2022-09-03T15:53:36.584Z,4.25
2022-09-03T15:56:20.648Z,2.70
2022-09-03T15:58:47.659Z,4.93
2022-09-03T16:01:33.742Z,3.47
2022-09-03T16:04:09.820Z,5.78
2022-09-03T16:06:54.210Z,3.00
2022-09-03T16:09:42.700Z,3.08
2022-09-03T16:12:49.642Z,3.45
2022-09-03T16:15:28.215Z,3.20
2022-09-03T16:17:58.179Z,3.30
2022-09-03T16:20:31.215Z,4.68
2022-09-03T16:23:13.326Z,5.38
2022-09-03T16:26:00.685Z,3.33
2022-09-03T16:29:00.091Z,8.60
2022-09-03T16:31:59.982Z,2.15
2022-09-03T16:34:43.473Z,4.95
2022-09-03T16:37:21.401Z,5.60
2022-09-03T16:40:12.058Z,7.38
2022-09-03T16:42:57.403Z,6.53
2022-09-03T16:45:43.024Z,5.53
2022-09-03T16:48:26.969Z,7.32
2022-09-03T16:51:05.993Z,6.93
2022-09-03T16:54:01.308Z,8.57
2022-09-03T16:56:52.906Z,3.65
2022-09-03T17:02:30.174Z,5.00
2022-09-03T17:05:26.491Z,10.73
2022-09-03T17:08:18.364Z,7.18
2022-09-03T17:13:38.406Z,6.90
2022-09-03T17:16:24.962Z,4.57
2022-09-03T17:19:19.069Z,5.00
2022-09-03T17:21:53.578Z,5.80
2022-09-03T17:24:52.227Z,8.68
2022-09-03T17:27:48.726Z,5.55
2022-09-03T17:30:40.737Z,6.57
2022-09-03T17:33:35.221Z,5.63
2022-09-03T17:36:14.649Z,6.20
2022-09-03T17:39:00.698Z,6.82
2022-09-03T17:41:34.341Z,11.45
2022-09-03T17:44:11.269Z,8.02
2022-09-03T17:47:15.714Z,7.47
2022-09-03T17:49:57.472Z,11.18
2022-09-03T17:52:32.519Z,7.78
2022-09-03T17:55:15.538Z,5.72
2022-09-03T17:57:48.105Z,5.47
2022-09-03T18:00:25.314Z,7.00
2022-09-03T18:03:02.072Z,10.95
2022-09-03T18:05:46.956Z,5.93
2022-09-03T18:08:25.151Z,8.85
2022-09-03T18:11:09.428Z,10.98
2022-09-03T18:14:02.717Z,6.63
2022-09-03T18:16:34.200Z,5.68
2022-09-03T18:19:32.269Z,9.65
2022-09-03T18:22:22.578Z,7.03
2022-09-03T18:25:17.781Z,7.45
2022-09-03T18:28:08.343Z,6.80
2022-09-03T18:30:54.331Z,7.50
2022-09-03T18:33:43.297Z,5.80
2022-09-03T18:36:29.600Z,7.63
2022-09-03T18:39:30.739Z,9.18
2022-09-03T18:42:22.535Z,12.55
2022-09-03T18:45:22.378Z,7.43
2022-09-03T18:48:35.700Z,13.50
2022-09-03T18:51:39.601Z,11.65
2022-09-03T18:55:03.827Z,30.48
2022-09-03T18:58:08.532Z,36.42
2022-09-03T19:01:08.952Z,39.05
2022-09-03T19:04:08.546Z,30.23
2022-09-03T19:07:09.423Z,28.85
2022-09-03T19:10:06.255Z,13.70
2022-09-03T19:13:27.846Z,10.70
2022-09-03T19:16:29.676Z,7.68
2022-09-03T19:19:34.202Z,6.97
2022-09-03T19:22:27.990Z,8.35
2022-09-03T19:25:29.250Z,9.02
2022-09-03T19:28:28.804Z,14.50
2022-09-03T19:31:48.450Z,14.63
2022-09-03T19:34:50.254Z,9.18
2022-09-03T19:37:45.154Z,6.97
2022-09-03T19:41:06.250Z,8.73
2022-09-03T19:44:04.272Z,8.27
2022-09-03T19:47:05.617Z,15.88
2022-09-03T19:50:09.524Z,14.10
2022-09-03T19:53:14.112Z,13.85
2022-09-03T19:56:07.812Z,9.48
2022-09-03T19:58:56.953Z,16.77
2022-09-03T20:01:50.510Z,12.25
2022-09-03T20:04:37.392Z,8.10
2022-09-03T20:07:27.788Z,14.05
2022-09-03T20:10:20.887Z,7.80
2022-09-03T20:13:09.816Z,10.90
2022-09-03T20:15:47.976Z,16.25
2022-09-03T20:18:34.162Z,7.70
2022-09-03T20:21:12.958Z,10.35
2022-09-03T20:24:11.503Z,13.52
2022-09-03T20:27:01.285Z,13.95
2022-09-03T20:29:47.194Z,11.15
2022-09-03T20:32:19.734Z,8.98
2022-09-03T20:34:57.829Z,8.80
2022-09-03T20:38:05.587Z,13.18
2022-09-03T20:40:47.116Z,12.10
2022-09-03T20:46:28.493Z,11.40
2022-09-03T20:49:39.209Z,12.13
2022-09-03T20:52:19.439Z,10.32
2022-09-03T20:54:51.302Z,11.93
2022-09-03T20:57:35.135Z,10.15
2022-09-03T21:00:07.046Z,15.73
2022-09-03T21:03:11.347Z,10.45
2022-09-03T21:06:02.450Z,11.48
2022-09-03T21:09:05.055Z,10.95
2022-09-03T21:11:45.094Z,9.05
2022-09-03T21:14:47.725Z,13.30
2022-09-03T21:17:26.797Z,11.20
2022-09-03T21:20:11.660Z,12.77
2022-09-03T21:23:03.640Z,13.48
2022-09-03T21:25:42.796Z,11.00
2022-09-03T21:28:32.292Z,10.70
2022-09-03T21:31:03.367Z,18.02
2022-09-03T21:33:38.211Z,12.63
2022-09-03T21:36:08.306Z,11.85
2022-09-03T21:38:38.398Z,10.27
2022-09-03T21:41:23.443Z,11.75
2022-09-03T21:44:11.775Z,9.55
2022-09-03T21:46:49.830Z,14.30
2022-09-03T21:49:26.264Z,9.18
2022-09-03T21:52:02.442Z,10.80
2022-09-03T21:54:34.721Z,7.47
2022-09-03T21:57:22.054Z,12.23
2022-09-03T22:00:17.939Z,21.83
2022-09-03T22:02:47.143Z,16.33
2022-09-03T22:05:15.898Z,12.27
2022-09-03T22:08:03.849Z,11.07
2022-09-03T22:10:39.354Z,8.07
2022-09-03T22:13:24.232Z,9.68
2022-09-03T22:15:57.767Z,8.98
2022-09-03T22:18:30.401Z,14.48
2022-09-03T22:21:12.708Z,12.00
2022-09-03T22:23:55.536Z,16.38
2022-09-03T22:26:32.429Z,10.90
2022-09-03T22:29:23.323Z,8.95
2022-09-03T22:31:59.106Z,10.43
2022-09-03T22:34:47.696Z,11.82
2022-09-03T22:37:39.236Z,11.50
2022-09-03T22:40:34.048Z,8.25
2022-09-03T22:43:39.260Z,10.90
2022-09-03T22:46:08.801Z,7.93
2022-09-03T22:49:06.524Z,10.52
2022-09-03T22:51:59.157Z,9.13
2022-09-03T22:54:31.674Z,11.80
2022-09-03T22:57:02.923Z,11.40
2022-09-03T22:59:37.927Z,13.82
2022-09-03T23:02:18.383Z,11.68
2022-09-03T23:05:02.346Z,11.90
2022-09-03T23:07:52.700Z,11.85
2022-09-03T23:10:29.324Z,14.70
2022-09-03T23:13:02.111Z,15.60
2022-09-03T23:15:32.313Z,12.63
2022-09-03T23:18:10.854Z,16.80
2022-09-03T23:20:42.795Z,12.55
2022-09-03T23:23:31.153Z,13.98
2022-09-03T23:26:13.518Z,11.32
2022-09-03T23:28:54.471Z,15.05
2022-09-03T23:31:24.862Z,12.88
2022-09-03T23:33:54.653Z,16.77
2022-09-03T23:37:10.386Z,15.82
2022-09-03T23:39:53.818Z,16.00
2022-09-03T23:42:38.907Z,12.52
2022-09-03T23:45:18.161Z,12.13
2022-09-03T23:48:07.445Z,15.90
2022-09-03T23:50:49.460Z,15.38
2022-09-03T23:56:27.620Z,11.25
2022-09-03T23:59:50.267Z,15.90
